createdAt,value
2022-08-22T00:02:03.147Z,99.90
2022-08-22T00:02:47.240Z,99.90
2022-08-22T00:02:58.481Z,99.90
2022-08-22T00:03:08.631Z,99.90
2022-08-22T00:04:39.147Z,99.90
2022-08-22T00:07:12.315Z,99.90
2022-08-22T00:09:41.937Z,99.90
2022-08-22T00:12:08.779Z,99.90
2022-08-22T00:14:39.888Z,99.90
2022-08-22T00:17:22.479Z,99.90
2022-08-22T00:24:46.256Z,99.90
2022-08-22T00:27:15.484Z,99.90
2022-08-22T00:29:54.470Z,99.90
2022-08-22T00:32:29.411Z,99.90
2022-08-22T00:35:02.978Z,99.90
2022-08-22T00:37:39.551Z,99.90
2022-08-22T00:40:29.784Z,99.90
2022-08-22T00:43:19.720Z,99.90
2022-08-22T00:46:05.214Z,99.90
2022-08-22T00:48:53.172Z,99.90
2022-08-22T00:51:45.025Z,99.90
2022-08-22T00:54:33.013Z,99.90
2022-08-22T00:57:18.583Z,99.90
2022-08-22T00:59:45.178Z,99.90
2022-08-22T01:02:26.237Z,99.90
2022-08-22T01:05:11.679Z,99.90
2022-08-22T01:07:41.308Z,99.90
2022-08-22T01:10:26.674Z,99.90
2022-08-22T01:13:13.554Z,99.90
2022-08-22T01:15:40.587Z,99.90
2022-08-22T01:18:10.229Z,99.90
2022-08-22T01:20:52.368Z,99.90
2022-08-22T01:23:31.323Z,99.90
2022-08-22T01:26:16.998Z,99.90
2022-08-22T01:28:52.157Z,99.90
2022-08-22T01:31:28.161Z,99.90
2022-08-22T01:34:13.333Z,99.90
2022-08-22T01:36:40.439Z,99.90
2022-08-22T01:39:33.464Z,99.90
2022-08-22T01:42:12.610Z,99.90
2022-08-22T01:44:44.788Z,99.90
2022-08-22T01:47:13.666Z,99.90
2022-08-22T01:49:44.146Z,99.90
2022-08-22T01:52:29.654Z,99.90
2022-08-22T01:55:00.010Z,99.90
2022-08-22T01:57:27.528Z,99.90
2022-08-22T01:59:55.968Z,99.90
2022-08-22T02:02:27.544Z,99.90
2022-08-22T02:05:31.638Z,99.90
2022-08-22T02:08:16.911Z,99.90
2022-08-22T02:10:43.477Z,99.90
2022-08-22T02:13:10.085Z,99.90
2022-08-22T02:15:43.884Z,99.90
2022-08-22T02:18:14.420Z,99.90
2022-08-22T02:21:05.218Z,99.90
2022-08-22T02:23:44.071Z,99.90
2022-08-22T02:26:16.869Z,99.90
2022-08-22T02:29:07.657Z,99.90
2022-08-22T02:31:34.269Z,99.90
2022-08-22T02:34:03.348Z,99.90
2022-08-22T02:36:41.005Z,99.90
2022-08-22T02:39:13.588Z,99.90
2022-08-22T02:41:59.999Z,99.90
2022-08-22T02:44:29.441Z,99.90
2022-08-22T02:47:02.688Z,99.90
2022-08-22T02:49:32.530Z,99.90
2022-08-22T02:52:17.065Z,99.90
2022-08-22T02:54:43.722Z,99.90
2022-08-22T02:57:28.159Z,99.90
2022-08-22T03:00:31.062Z,99.90
2022-08-22T03:02:59.471Z,99.90
2022-08-22T03:05:40.106Z,99.90
2022-08-22T03:08:19.025Z,99.90
2022-08-22T03:11:01.472Z,99.90
2022-08-22T03:13:48.196Z,99.90
2022-08-22T03:16:22.359Z,99.90
2022-08-22T03:18:52.124Z,99.90
2022-08-22T03:21:30.776Z,99.90
2022-08-22T03:24:17.469Z,99.90
2022-08-22T03:26:44.480Z,99.90
2022-08-22T03:29:19.672Z,99.90
2022-08-22T03:32:05.118Z,99.90
2022-08-22T03:34:32.092Z,99.90
2022-08-22T03:37:19.273Z,99.90
2022-08-22T03:39:48.982Z,99.90
2022-08-22T03:42:35.696Z,99.90
2022-08-22T03:45:02.361Z,99.90
2022-08-22T03:47:38.574Z,99.90
2022-08-22T03:50:05.150Z,99.90
2022-08-22T03:52:34.865Z,99.90
2022-08-22T03:55:04.579Z,99.90
2022-08-22T03:57:44.429Z,99.90
2022-08-22T04:00:18.398Z,99.90
2022-08-22T04:03:00.258Z,99.90
2022-08-22T04:05:43.680Z,99.90
2022-08-22T04:08:29.079Z,99.90
2022-08-22T04:10:56.484Z,99.90
2022-08-22T04:13:42.805Z,99.90
2022-08-22T04:16:21.732Z,99.90
2022-08-22T04:19:08.003Z,99.90
2022-08-22T04:21:53.059Z,99.90
2022-08-22T04:24:19.645Z,99.90
2022-08-22T04:27:05.220Z,99.90
2022-08-22T04:29:35.382Z,99.90
2022-08-22T04:32:07.008Z,99.90
2022-08-22T04:34:37.630Z,99.90
2022-08-22T04:37:30.535Z,99.90
2022-08-22T04:40:04.799Z,99.90
2022-08-22T04:42:34.519Z,99.90
2022-08-22T04:45:08.458Z,99.90
2022-08-22T04:47:54.310Z,99.90
2022-08-22T04:50:34.913Z,99.90
2022-08-22T04:53:20.549Z,99.90
2022-08-22T04:56:07.627Z,99.90
2022-08-22T04:58:43.699Z,99.90
2022-08-22T05:01:25.653Z,99.90
2022-08-22T05:04:01.236Z,99.90
2022-08-22T05:06:30.948Z,99.90
2022-08-22T05:09:07.521Z,99.90
2022-08-22T05:11:34.667Z,99.90
2022-08-22T05:14:07.102Z,99.90
2022-08-22T05:16:37.103Z,99.90
2022-08-22T05:19:15.722Z,99.90
2022-08-22T05:21:44.360Z,99.90
2022-08-22T05:24:13.891Z,99.90
2022-08-22T05:26:42.296Z,99.90
2022-08-22T05:29:10.739Z,99.90
2022-08-22T05:31:41.502Z,99.90
2022-08-22T05:34:12.365Z,99.90
2022-08-22T05:36:41.487Z,99.90
2022-08-22T05:39:27.890Z,99.90
2022-08-22T05:41:55.932Z,99.90
2022-08-22T05:44:24.807Z,99.90
2022-08-22T05:46:57.403Z,99.90
2022-08-22T05:49:38.841Z,99.90
2022-08-22T05:52:05.514Z,99.90
2022-08-22T05:54:34.630Z,99.90
2022-08-22T05:57:20.994Z,99.90
2022-08-22T05:59:51.713Z,99.90
2022-08-22T06:02:23.860Z,99.90
2022-08-22T06:04:59.708Z,99.90
2022-08-22T06:07:35.484Z,99.90
2022-08-22T06:10:05.159Z,99.90
2022-08-22T06:12:31.737Z,99.90
2022-08-22T06:15:11.835Z,99.90
2022-08-22T06:17:48.025Z,99.90
2022-08-22T06:20:18.726Z,99.90
2022-08-22T06:22:51.469Z,99.90
2022-08-22T06:27:47.012Z,99.90
2022-08-22T06:30:15.181Z,99.90
2022-08-22T06:32:59.351Z,99.90
2022-08-22T06:37:56.855Z,99.90
2022-08-22T06:47:53.578Z,99.90
2022-08-22T06:50:25.909Z,99.90
2022-08-22T06:53:08.016Z,99.90
2022-08-22T06:55:36.380Z,99.90
2022-08-22T06:58:04.778Z,99.90
2022-08-22T07:00:32.807Z,99.90
2022-08-22T07:03:07.596Z,99.90
2022-08-22T07:05:36.393Z,99.90
2022-08-22T07:08:22.918Z,99.90
2022-08-22T07:10:56.235Z,99.90
2022-08-22T07:13:24.171Z,99.90
2022-08-22T07:18:19.600Z,99.90
2022-08-22T07:20:55.042Z,99.90
2022-08-22T07:23:28.917Z,99.90
2022-08-22T07:25:58.664Z,99.90
2022-08-22T07:28:31.760Z,99.90
2022-08-22T07:31:24.518Z,99.90
2022-08-22T07:33:54.091Z,99.90
2022-08-22T07:36:22.969Z,99.90
2022-08-22T07:39:02.308Z,99.90
2022-08-22T07:41:36.696Z,99.90
2022-08-22T07:44:03.391Z,99.90
2022-08-22T07:46:38.504Z,99.90
2022-08-22T07:49:21.081Z,99.90
2022-08-22T07:54:30.499Z,99.90
2022-08-22T07:57:18.134Z,99.90
2022-08-22T07:59:52.086Z,99.90
2022-08-22T08:06:08.987Z,99.90
2022-08-22T08:11:07.280Z,99.90
2022-08-22T08:13:35.620Z,99.90
2022-08-22T08:16:04.620Z,99.90
2022-08-22T08:18:34.011Z,99.90
2022-08-22T08:21:03.782Z,99.90
2022-08-22T08:23:39.581Z,99.90
2022-08-22T08:26:21.333Z,99.90
2022-08-22T08:28:49.421Z,99.90
2022-08-22T08:31:19.159Z,99.90
2022-08-22T08:33:48.519Z,99.90
2022-08-22T08:36:18.478Z,99.90
2022-08-22T08:38:49.489Z,99.90
2022-08-22T08:41:22.505Z,99.90
2022-08-22T08:43:58.087Z,99.90
2022-08-22T08:46:43.368Z,99.90
2022-08-22T08:49:33.727Z,99.90
2022-08-22T08:52:17.780Z,99.90
2022-08-22T08:55:19.868Z,99.90
2022-08-22T08:58:06.533Z,99.90
2022-08-22T09:00:33.981Z,99.90
2022-08-22T09:03:18.342Z,99.90
2022-08-22T09:05:55.806Z,99.90
2022-08-22T09:08:29.367Z,99.90
2022-08-22T09:10:57.136Z,99.90
2022-08-22T09:13:42.628Z,99.90
2022-08-22T09:16:39.160Z,99.90
2022-08-22T09:19:16.092Z,99.90
2022-08-22T09:21:48.760Z,99.90
2022-08-22T09:24:34.042Z,99.90
2022-08-22T09:27:02.332Z,99.90
2022-08-22T09:32:52.179Z,99.90
2022-08-22T09:35:24.059Z,99.90
2022-08-22T09:37:53.831Z,99.90
2022-08-22T09:40:29.363Z,99.90
2022-08-22T09:42:59.503Z,99.90
2022-08-22T09:45:50.189Z,99.90
2022-08-22T09:48:33.253Z,99.90
2022-08-22T09:51:32.277Z,99.90
2022-08-22T09:53:59.539Z,99.90
2022-08-22T09:56:35.635Z,99.90
2022-08-22T09:59:21.167Z,99.90
2022-08-22T10:01:53.232Z,99.90
2022-08-22T10:04:38.871Z,99.90
2022-08-22T10:07:25.245Z,99.90
2022-08-22T10:10:04.604Z,99.90
2022-08-22T10:12:36.570Z,99.90
2022-08-22T10:17:46.965Z,99.90
2022-08-22T10:20:25.823Z,99.90
2022-08-22T10:23:08.159Z,99.90
2022-08-22T10:25:48.560Z,99.90
2022-08-22T10:28:28.449Z,99.90
2022-08-22T10:31:07.192Z,99.90
2022-08-22T10:33:54.972Z,99.90
2022-08-22T10:36:27.591Z,99.90
2022-08-22T10:38:55.364Z,99.90
2022-08-22T10:41:36.158Z,99.90
2022-08-22T10:44:12.088Z,99.90
2022-08-22T10:46:46.233Z,99.90
2022-08-22T10:49:19.579Z,99.90
2022-08-22T10:51:52.343Z,99.90
2022-08-22T10:54:37.877Z,99.90
2022-08-22T10:57:23.491Z,99.90
2022-08-22T11:00:03.972Z,99.90
2022-08-22T11:02:35.727Z,99.90
2022-08-22T11:05:28.834Z,99.90
2022-08-22T11:08:14.745Z,99.90
2022-08-22T11:11:01.274Z,99.90
2022-08-22T11:15:56.341Z,99.90
2022-08-22T11:18:23.075Z,99.90
2022-08-22T11:20:50.184Z,99.90
2022-08-22T11:23:37.447Z,99.40
2022-08-22T11:26:13.348Z,99.10
2022-08-22T11:28:52.554Z,99.00
2022-08-22T11:31:19.875Z,98.70
2022-08-22T11:33:50.190Z,99.40
2022-08-22T11:36:19.865Z,99.10
2022-08-22T11:39:01.140Z,99.00
2022-08-22T11:41:27.899Z,98.80
2022-08-22T11:44:03.661Z,99.90
2022-08-22T11:51:34.248Z,94.50
2022-08-22T11:56:43.477Z,99.90
2022-08-22T11:59:18.920Z,98.10
2022-08-22T12:01:49.419Z,96.40
2022-08-22T12:06:56.327Z,93.00
2022-08-22T12:14:27.015Z,82.70
2022-08-22T12:17:00.596Z,98.80
2022-08-22T12:20:05.655Z,99.90
2022-08-22T12:22:41.584Z,82.50
2022-08-22T12:25:27.524Z,83.10
2022-08-22T12:27:55.254Z,83.00
2022-08-22T12:30:30.351Z,83.90
2022-08-22T12:33:13.169Z,83.90
2022-08-22T12:35:40.590Z,83.90
2022-08-22T12:38:28.423Z,83.10
2022-08-22T12:40:54.038Z,85.50
2022-08-22T12:43:23.241Z,83.70
2022-08-22T12:45:50.721Z,81.20
2022-08-22T12:48:36.540Z,81.30
2022-08-22T12:51:20.278Z,76.40
2022-08-22T12:54:04.528Z,78.10
2022-08-22T12:56:41.960Z,76.40
2022-08-22T12:59:23.063Z,75.00
2022-08-22T13:01:51.858Z,70.90
2022-08-22T13:06:52.653Z,82.20
2022-08-22T13:09:28.561Z,93.60
2022-08-22T13:12:12.246Z,69.50
2022-08-22T13:17:25.018Z,73.10
2022-08-22T13:20:06.223Z,74.50
2022-08-22T13:22:35.866Z,73.30
2022-08-22T13:25:26.502Z,70.10
2022-08-22T13:30:40.631Z,66.40
2022-08-22T13:33:09.515Z,68.70
2022-08-22T13:35:55.315Z,68.90
2022-08-22T13:38:46.482Z,66.50
2022-08-22T13:41:18.853Z,65.40
2022-08-22T13:43:59.737Z,64.30
2022-08-22T13:46:28.212Z,66.80
2022-08-22T13:51:46.657Z,62.60
2022-08-22T13:54:16.420Z,65.40
2022-08-22T13:56:47.814Z,63.00
2022-08-22T14:02:15.217Z,95.30
2022-08-22T14:04:45.923Z,81.60
2022-08-22T14:07:31.651Z,75.40
2022-08-22T14:10:14.688Z,64.10
2022-08-22T14:12:50.259Z,60.80
2022-08-22T14:15:23.592Z,61.80
2022-08-22T14:17:52.158Z,61.10
2022-08-22T14:20:32.532Z,63.50
2022-08-22T14:23:04.644Z,75.90
2022-08-22T14:25:34.726Z,65.10
2022-08-22T14:28:06.508Z,64.50
2022-08-22T14:30:59.379Z,65.50
2022-08-22T14:33:39.863Z,66.10
2022-08-22T14:36:25.842Z,66.10
2022-08-22T14:39:19.581Z,65.00
2022-08-22T14:41:56.313Z,64.50
2022-08-22T14:44:44.432Z,63.80
2022-08-22T14:47:43.343Z,67.40
2022-08-22T14:50:12.053Z,61.00
2022-08-22T14:52:41.179Z,62.80
2022-08-22T14:55:20.671Z,64.60
2022-08-22T14:57:54.215Z,64.50
2022-08-22T15:00:26.043Z,65.40
2022-08-22T15:05:22.752Z,60.70
2022-08-22T15:07:55.106Z,70.00
2022-08-22T15:12:56.135Z,57.30
2022-08-22T15:18:27.716Z,65.80
2022-08-22T15:21:09.666Z,60.30
2022-08-22T15:23:45.429Z,57.10
2022-08-22T15:26:31.469Z,65.10
2022-08-22T15:31:28.398Z,54.00
2022-08-22T15:39:00.528Z,53.20
2022-08-22T15:46:40.598Z,51.90
2022-08-22T15:49:21.195Z,51.80
2022-08-22T15:54:25.382Z,51.50
2022-08-22T15:56:52.878Z,59.40
2022-08-22T15:59:25.573Z,80.00
2022-08-22T16:01:55.443Z,59.30
2022-08-22T16:04:54.793Z,58.10
2022-08-22T16:07:25.739Z,55.50
2022-08-22T16:09:54.107Z,57.50
2022-08-22T16:12:38.632Z,57.40
2022-08-22T16:15:25.414Z,57.30
2022-08-22T16:17:53.223Z,57.60
2022-08-22T16:20:20.375Z,58.20
2022-08-22T16:22:59.147Z,57.70
2022-08-22T16:27:54.952Z,58.50
2022-08-22T16:30:30.829Z,64.30
2022-08-22T16:32:57.595Z,63.30
2022-08-22T16:37:51.551Z,59.40
2022-08-22T16:40:21.457Z,60.30
2022-08-22T16:47:52.281Z,99.90
2022-08-22T16:50:27.934Z,83.20
2022-08-22T16:53:14.814Z,67.80
2022-08-22T16:55:42.951Z,69.50
2022-08-22T16:58:35.810Z,69.90
2022-08-22T17:01:43.315Z,70.80
2022-08-22T17:04:24.471Z,70.60
2022-08-22T17:09:33.569Z,71.60
2022-08-22T17:12:09.680Z,72.10
2022-08-22T17:14:48.875Z,72.50
2022-08-22T17:17:28.070Z,73.00
2022-08-22T17:19:57.953Z,75.90
2022-08-22T17:25:08.954Z,88.70
2022-08-22T17:27:40.515Z,76.20
2022-08-22T17:30:07.532Z,80.70
2022-08-22T17:32:44.089Z,81.40
2022-08-22T17:35:21.661Z,79.20
2022-08-22T17:38:13.305Z,82.10
2022-08-22T17:40:39.981Z,78.40
2022-08-22T17:43:13.110Z,80.40
2022-08-22T17:48:12.163Z,80.10
2022-08-22T17:50:52.869Z,81.60
2022-08-22T17:53:39.013Z,81.90
2022-08-22T17:56:12.403Z,82.50
2022-08-22T17:58:45.392Z,83.80
2022-08-22T18:01:21.587Z,87.50
2022-08-22T18:03:52.966Z,84.30
2022-08-22T18:11:43.107Z,84.80
2022-08-22T18:14:21.981Z,86.10
2022-08-22T18:19:32.876Z,86.30
2022-08-22T18:22:22.032Z,87.20
2022-08-22T18:24:49.492Z,88.20
2022-08-22T18:27:34.208Z,90.00
2022-08-22T18:30:01.854Z,90.00
2022-08-22T18:32:35.163Z,92.40
2022-08-22T18:35:08.117Z,90.60
2022-08-22T18:37:35.536Z,90.80
2022-08-22T18:40:06.042Z,90.60
2022-08-22T18:42:32.696Z,91.90
2022-08-22T18:44:59.368Z,92.00
2022-08-22T18:47:27.728Z,91.90
2022-08-22T18:49:55.559Z,92.50
2022-08-22T18:52:33.054Z,92.80
2022-08-22T18:54:59.719Z,96.90
2022-08-22T18:57:30.470Z,93.00
2022-08-22T19:00:17.830Z,93.10
2022-08-22T19:03:00.752Z,93.80
2022-08-22T19:05:46.352Z,93.60
2022-08-22T19:08:19.198Z,93.90
2022-08-22T19:10:55.053Z,94.50
2022-08-22T19:13:36.922Z,94.50
2022-08-22T19:16:26.973Z,94.40
2022-08-22T19:19:17.214Z,94.40
2022-08-22T19:22:21.798Z,94.50
2022-08-22T19:25:09.927Z,94.90
2022-08-22T19:27:40.476Z,94.60
2022-08-22T19:30:26.046Z,94.90
2022-08-22T19:32:59.200Z,94.90
2022-08-22T19:35:28.720Z,95.00
2022-08-22T19:38:02.717Z,94.80
2022-08-22T19:40:50.150Z,95.30
2022-08-22T19:43:36.889Z,99.60
2022-08-22T19:46:06.138Z,97.20
2022-08-22T19:51:08.459Z,96.10
2022-08-22T19:53:38.782Z,96.60
2022-08-22T19:56:05.416Z,97.10
2022-08-22T19:58:39.259Z,97.30
2022-08-22T20:01:25.700Z,97.20
2022-08-22T20:03:58.808Z,98.40
2022-08-22T20:06:45.279Z,98.40
2022-08-22T20:09:30.803Z,99.90
2022-08-22T20:12:05.630Z,99.90
2022-08-22T20:14:34.497Z,99.20
2022-08-22T20:22:38.851Z,99.90
2022-08-22T20:25:17.213Z,99.90
2022-08-22T20:28:01.958Z,99.90
2022-08-22T20:30:31.037Z,99.90
2022-08-22T20:33:01.930Z,99.90
2022-08-22T20:35:43.936Z,99.90
2022-08-22T20:38:13.032Z,99.90
2022-08-22T20:40:56.180Z,99.90
2022-08-22T20:43:31.778Z,99.90
2022-08-22T20:45:59.526Z,99.90
2022-08-22T20:48:33.198Z,99.90
2022-08-22T20:51:03.873Z,99.90
2022-08-22T20:53:31.052Z,99.90
2022-08-22T20:55:57.709Z,99.90
2022-08-22T20:58:26.087Z,99.90
2022-08-22T21:00:54.762Z,99.90
2022-08-22T21:03:39.873Z,99.90
2022-08-22T21:06:12.152Z,99.90
2022-08-22T21:08:39.409Z,99.90
2022-08-22T21:11:25.190Z,99.90
2022-08-22T21:13:52.279Z,99.90
2022-08-22T21:16:19.044Z,99.90
2022-08-22T21:18:49.979Z,99.90
2022-08-22T21:21:19.751Z,99.90
2022-08-22T21:23:47.799Z,99.90
2022-08-22T21:26:23.682Z,99.90
2022-08-22T21:28:56.386Z,99.90
2022-08-22T21:31:24.726Z,99.90
2022-08-22T21:33:53.068Z,99.90
2022-08-22T21:36:25.208Z,99.90
2022-08-22T21:39:00.032Z,99.90
2022-08-22T21:41:46.898Z,99.90
2022-08-22T21:44:39.950Z,99.90
2022-08-22T21:47:30.723Z,99.90
2022-08-22T21:50:13.446Z,99.90
2022-08-22T21:52:41.622Z,99.90
2022-08-22T21:55:16.352Z,99.90
2022-08-22T21:57:43.429Z,99.90
2022-08-22T22:00:30.175Z,99.90
2022-08-22T22:03:01.064Z,99.90
2022-08-22T22:05:29.660Z,99.90
2022-08-22T22:07:56.445Z,99.90
2022-08-22T22:10:23.445Z,99.90
2022-08-22T22:12:52.097Z,99.90
2022-08-22T22:15:21.425Z,99.90
2022-08-22T22:17:48.079Z,99.90
2022-08-22T22:20:16.242Z,99.90
2022-08-22T22:22:46.448Z,99.90
2022-08-22T22:25:39.023Z,99.90
2022-08-22T22:28:02.818Z,99.90
2022-08-22T22:30:29.631Z,99.90
2022-08-22T22:32:56.267Z,99.90
2022-08-22T22:37:50.016Z,99.90
2022-08-22T22:40:16.751Z,99.90
2022-08-22T22:42:43.432Z,99.90
2022-08-22T22:45:10.816Z,99.90
2022-08-22T22:47:37.587Z,99.90
2022-08-22T22:50:04.737Z,99.90
2022-08-22T22:52:31.350Z,99.90
2022-08-22T22:54:57.991Z,99.90
2022-08-22T22:57:25.668Z,99.90
2022-08-22T22:59:52.426Z,99.90
2022-08-22T23:02:20.411Z,99.90
2022-08-22T23:04:49.836Z,99.90
2022-08-22T23:07:18.320Z,99.90
2022-08-22T23:09:45.370Z,99.90
2022-08-22T23:12:12.598Z,99.90
2022-08-22T23:14:39.407Z,99.90
2022-08-22T23:17:06.038Z,99.90
2022-08-22T23:19:32.813Z,99.90
2022-08-22T23:21:59.903Z,99.90
2022-08-22T23:24:29.225Z,99.90
2022-08-22T23:26:56.302Z,99.90
2022-08-22T23:29:23.316Z,99.90
2022-08-22T23:34:18.573Z,99.90
2022-08-22T23:36:46.293Z,99.90
